createdAt,value
2018-02-18T00:01:14.038Z,48.78
2018-02-18T00:03:42.209Z,46.60
2018-02-18T00:06:11.414Z,45.63
2018-02-18T00:08:39.626Z,43.60
2018-02-18T00:11:08.324Z,42.90
2018-02-18T00:13:36.504Z,45.67
2018-02-18T00:16:08.353Z,45.53
2018-02-18T00:18:36.530Z,42.53
2018-02-18T00:21:04.760Z,44.10
2018-02-18T00:23:32.973Z,37.22
2018-02-18T00:26:01.204Z,39.22
2018-02-18T00:28:29.383Z,45.70
2018-02-18T00:30:57.548Z,39.35
2018-02-18T00:33:25.718Z,38.92
2018-02-18T00:35:54.816Z,47.38
2018-02-18T00:38:22.967Z,40.28
2018-02-18T00:40:51.164Z,49.22
2018-02-18T00:43:19.452Z,46.92
2018-02-18T00:45:47.738Z,42.47
2018-02-18T00:48:15.895Z,45.10
2018-02-18T00:50:44.056Z,52.67
2018-02-18T00:53:12.217Z,46.00
2018-02-18T00:55:40.428Z,49.10
2018-02-18T00:58:08.586Z,49.60
2018-02-18T01:00:36.748Z,48.30
2018-02-18T01:03:04.920Z,45.42
2018-02-18T01:05:33.949Z,41.03
2018-02-18T01:08:02.118Z,48.97
2018-02-18T01:10:30.288Z,49.75
2018-02-18T01:12:58.450Z,52.28
2018-02-18T01:15:30.970Z,53.55
2018-02-18T01:17:59.135Z,51.88
2018-02-18T01:20:27.310Z,43.50
2018-02-18T01:22:55.477Z,54.25
2018-02-18T01:25:24.579Z,47.40
2018-02-18T01:27:52.737Z,49.95
2018-02-18T01:30:20.905Z,42.67
2018-02-18T01:32:49.076Z,46.70
2018-02-18T01:35:24.261Z,52.05
2018-02-18T01:37:52.423Z,49.97
2018-02-18T01:40:22.740Z,47.45
2018-02-18T01:42:50.897Z,46.20
2018-02-18T01:45:21.149Z,50.95
2018-02-18T01:47:49.328Z,56.75
2018-02-18T01:50:29.356Z,45.03
2018-02-18T01:52:58.345Z,43.22
2018-02-18T01:55:27.321Z,52.47
2018-02-18T01:57:55.478Z,47.20
2018-02-18T02:00:24.401Z,51.92
2018-02-18T02:02:52.586Z,51.65
2018-02-18T02:05:20.840Z,52.92
2018-02-18T02:07:49.070Z,46.22
2018-02-18T02:10:17.220Z,53.45
2018-02-18T02:12:45.407Z,58.03
2018-02-18T02:15:20.776Z,51.42
2018-02-18T02:17:49.731Z,47.40
2018-02-18T02:20:21.782Z,48.10
2018-02-18T02:22:49.993Z,49.97
2018-02-18T02:25:18.154Z,45.17
2018-02-18T02:27:46.312Z,51.13
2018-02-18T02:30:14.485Z,53.15
2018-02-18T02:32:42.704Z,42.85
2018-02-18T02:35:10.877Z,46.75
2018-02-18T02:37:39.046Z,48.97
2018-02-18T02:40:07.192Z,53.10
2018-02-18T02:42:35.363Z,43.70
2018-02-18T02:45:03.529Z,49.35
2018-02-18T02:47:31.705Z,48.60
2018-02-18T02:49:59.870Z,49.58
2018-02-18T02:52:28.027Z,46.35
2018-02-18T02:54:56.207Z,53.55
2018-02-18T02:57:24.382Z,50.08
2018-02-18T02:59:52.540Z,45.95
2018-02-18T03:02:21.417Z,41.72
2018-02-18T03:04:49.560Z,41.97
2018-02-18T03:07:17.742Z,44.92
2018-02-18T03:09:45.909Z,37.05
2018-02-18T03:12:14.079Z,41.05
2018-02-18T03:14:42.253Z,46.95
2018-02-18T03:17:10.991Z,48.13
2018-02-18T03:19:39.166Z,37.40
2018-02-18T03:22:07.328Z,41.28
2018-02-18T03:24:36.274Z,46.10
2018-02-18T03:27:05.442Z,47.42
2018-02-18T03:29:33.608Z,41.60
2018-02-18T03:32:01.779Z,41.45
2018-02-18T03:34:29.937Z,38.55
2018-02-18T03:36:58.960Z,40.38
2018-02-18T03:39:27.122Z,42.33
2018-02-18T03:41:55.822Z,46.78
2018-02-18T03:44:23.960Z,41.60
2018-02-18T03:46:56.760Z,36.13
2018-02-18T03:49:25.042Z,44.97
2018-02-18T03:51:53.208Z,44.03
2018-02-18T03:54:21.373Z,42.03
2018-02-18T03:56:49.669Z,43.10
2018-02-18T03:59:17.836Z,41.17
2018-02-18T04:01:46.008Z,40.20
2018-02-18T04:04:14.183Z,43.65
2018-02-18T04:06:48.398Z,42.35
2018-02-18T04:09:24.030Z,42.85
2018-02-18T04:11:53.088Z,38.28
2018-02-18T04:14:27.760Z,38.72
2018-02-18T04:17:02.594Z,43.78
2018-02-18T04:19:30.752Z,43.65
2018-02-18T04:21:59.051Z,42.55
2018-02-18T04:24:27.214Z,41.50
2018-02-18T04:26:56.228Z,36.05
2018-02-18T04:29:24.445Z,38.25
2018-02-18T04:31:52.618Z,39.50
2018-02-18T04:34:20.789Z,36.10
2018-02-18T04:36:52.769Z,36.17
2018-02-18T04:39:20.934Z,41.70
2018-02-18T04:41:54.973Z,38.03
2018-02-18T04:44:23.888Z,40.88
2018-02-18T04:47:00.524Z,36.42
2018-02-18T04:49:29.468Z,48.65
2018-02-18T04:52:01.519Z,46.92
2018-02-18T04:54:29.688Z,42.88
2018-02-18T04:57:00.948Z,39.03
2018-02-18T04:59:29.204Z,51.53
2018-02-18T05:01:57.381Z,50.38
2018-02-18T05:04:26.414Z,39.75
2018-02-18T05:06:54.681Z,43.72
2018-02-18T05:09:22.861Z,34.92
2018-02-18T05:11:51.023Z,39.58
2018-02-18T05:14:19.199Z,37.42
2018-02-18T05:16:47.369Z,43.13
2018-02-18T05:19:15.523Z,34.13
2018-02-18T05:21:43.682Z,35.45
2018-02-18T05:24:12.834Z,36.60
2018-02-18T05:26:41.081Z,35.95
2018-02-18T05:29:09.263Z,34.15
2018-02-18T05:31:38.236Z,33.80
2018-02-18T05:34:06.408Z,36.30
2018-02-18T05:36:34.611Z,38.15
2018-02-18T05:39:04.583Z,36.65
2018-02-18T05:41:33.842Z,35.67
2018-02-18T05:44:02.038Z,41.63
2018-02-18T05:49:30.549Z,49.90
2018-02-18T05:51:58.752Z,36.83
2018-02-18T05:54:41.262Z,43.22
2018-02-18T05:57:24.646Z,47.92
2018-02-18T05:59:52.818Z,39.10
2018-02-18T06:02:27.085Z,39.75
2018-02-18T06:04:55.234Z,41.28
2018-02-18T06:07:23.408Z,39.80
2018-02-18T06:09:52.365Z,39.67
2018-02-18T06:12:21.316Z,41.75
2018-02-18T06:14:49.472Z,41.08
2018-02-18T06:17:18.434Z,48.15
2018-02-18T06:19:46.612Z,38.72
2018-02-18T06:22:15.252Z,45.45
2018-02-18T06:24:43.413Z,37.45
2018-02-18T06:27:11.571Z,44.92
2018-02-18T06:29:39.735Z,41.15
2018-02-18T06:32:07.909Z,44.25
2018-02-18T06:34:36.078Z,40.55
2018-02-18T06:37:04.291Z,49.22
2018-02-18T06:39:33.812Z,38.58
2018-02-18T06:42:03.094Z,39.50
2018-02-18T06:44:31.284Z,40.78
2018-02-18T06:47:01.532Z,37.10
2018-02-18T06:49:29.796Z,43.50
2018-02-18T06:51:58.004Z,41.13
2018-02-18T06:54:26.167Z,42.05
2018-02-18T06:56:55.146Z,47.70
2018-02-18T06:59:23.360Z,42.25
2018-02-18T07:01:53.156Z,47.85
2018-02-18T07:04:21.318Z,42.97
2018-02-18T07:06:49.529Z,39.42
2018-02-18T07:09:17.712Z,47.42
2018-02-18T07:11:47.309Z,51.60
2018-02-18T07:14:15.776Z,56.53
2018-02-18T07:16:46.752Z,49.40
2018-02-18T07:19:14.914Z,47.30
2018-02-18T07:21:43.153Z,38.20
2018-02-18T07:24:11.317Z,42.83
2018-02-18T07:26:39.485Z,43.75
2018-02-18T07:29:07.684Z,41.58
2018-02-18T07:31:35.850Z,43.22
2018-02-18T07:34:04.018Z,52.90
2018-02-18T07:36:40.403Z,50.17
2018-02-18T07:39:10.170Z,42.97
2018-02-18T07:41:39.301Z,50.42
2018-02-18T07:44:08.008Z,51.90
2018-02-18T07:46:36.309Z,42.97
2018-02-18T07:49:04.473Z,40.38
2018-02-18T07:51:32.882Z,44.13
2018-02-18T07:54:01.041Z,54.88
2018-02-18T07:56:37.827Z,44.58
2018-02-18T07:59:13.576Z,43.05
2018-02-18T08:02:01.339Z,38.20
2018-02-18T08:04:29.611Z,36.80
2018-02-18T08:06:58.689Z,42.35
2018-02-18T08:09:26.882Z,46.60
2018-02-18T08:11:55.072Z,58.85
2018-02-18T08:14:23.250Z,42.72
2018-02-18T08:16:51.741Z,41.83
2018-02-18T08:19:21.117Z,45.78
2018-02-18T08:21:52.127Z,42.05
2018-02-18T08:24:20.908Z,49.65
2018-02-18T08:27:03.386Z,50.58
2018-02-18T08:29:34.782Z,55.00
2018-02-18T08:32:03.135Z,44.38
2018-02-18T08:34:31.808Z,52.13
2018-02-18T08:37:04.323Z,50.85
2018-02-18T08:39:32.960Z,41.10
2018-02-18T08:42:01.137Z,38.00
2018-02-18T08:44:30.263Z,39.80
2018-02-18T08:46:58.495Z,35.15
2018-02-18T08:49:26.694Z,37.78
2018-02-18T08:51:58.402Z,52.08
2018-02-18T08:54:26.591Z,38.67
2018-02-18T08:56:54.838Z,29.42
2018-02-18T08:59:23.021Z,36.42
2018-02-18T09:01:51.831Z,33.10
2018-02-18T09:04:21.692Z,36.83
2018-02-18T09:06:49.991Z,27.80
2018-02-18T09:09:18.177Z,37.60
2018-02-18T09:11:46.406Z,41.13
2018-02-18T09:14:14.566Z,36.65
2018-02-18T09:16:49.299Z,41.08
2018-02-18T09:19:17.510Z,32.35
2018-02-18T09:21:46.383Z,30.67
2018-02-18T09:24:15.595Z,32.83
2018-02-18T09:26:45.733Z,31.75
2018-02-18T09:29:14.856Z,33.60
2018-02-18T09:31:43.092Z,31.55
2018-02-18T09:34:11.246Z,36.90
2018-02-18T09:36:39.524Z,27.52
2018-02-18T09:39:08.330Z,29.65
2018-02-18T09:41:36.482Z,34.10
2018-02-18T09:44:06.345Z,36.90
2018-02-18T09:46:34.736Z,33.53
2018-02-18T09:49:03.596Z,34.08
2018-02-18T09:51:32.659Z,35.00
2018-02-18T09:54:00.803Z,35.63
2018-02-18T09:56:29.024Z,31.67
2018-02-18T09:58:57.210Z,35.10
2018-02-18T10:01:25.364Z,36.13
2018-02-18T10:03:53.997Z,39.13
2018-02-18T10:06:28.773Z,27.10
2018-02-18T10:08:56.957Z,30.12
2018-02-18T10:11:26.272Z,37.38
2018-02-18T10:13:54.488Z,32.10
2018-02-18T10:16:24.563Z,34.83
2018-02-18T10:18:52.741Z,43.13
2018-02-18T10:21:25.205Z,40.55
2018-02-18T10:23:54.034Z,42.00
2018-02-18T10:26:30.447Z,43.15
2018-02-18T10:28:58.846Z,41.85
2018-02-18T10:31:31.157Z,40.88
2018-02-18T10:33:59.366Z,44.65
2018-02-18T10:36:31.579Z,41.20
2018-02-18T10:39:00.082Z,46.60
2018-02-18T10:41:28.253Z,35.60
2018-02-18T10:43:56.401Z,39.15
2018-02-18T10:46:25.669Z,32.63
2018-02-18T10:48:53.870Z,35.97
2018-02-18T10:51:22.067Z,37.08
2018-02-18T10:53:50.247Z,31.70
2018-02-18T10:56:20.238Z,34.80
2018-02-18T10:58:48.398Z,39.20
2018-02-18T11:01:16.566Z,34.35
2018-02-18T11:03:44.778Z,31.17
2018-02-18T11:06:16.808Z,37.35
2018-02-18T11:08:44.970Z,33.67
2018-02-18T11:11:15.457Z,29.65
2018-02-18T11:13:44.650Z,37.60
2018-02-18T11:16:13.063Z,32.53
2018-02-18T11:18:42.013Z,29.75
2018-02-18T11:24:03.722Z,31.95
2018-02-18T11:26:44.757Z,31.30
2018-02-18T11:29:12.984Z,32.08
2018-02-18T11:31:46.498Z,26.08
2018-02-18T11:34:19.895Z,23.80
2018-02-18T11:39:41.452Z,23.58
2018-02-18T11:42:09.694Z,23.83
2018-02-18T11:44:38.769Z,26.85
2018-02-18T11:47:25.194Z,26.42
2018-02-18T11:49:54.799Z,34.08
2018-02-18T11:57:43.209Z,31.85
2018-02-18T12:00:14.430Z,32.22
2018-02-18T12:02:46.500Z,32.95
2018-02-18T12:05:15.541Z,35.70
2018-02-18T12:10:36.273Z,38.88
2018-02-18T12:15:55.205Z,38.80
2018-02-18T12:21:09.727Z,32.47
2018-02-18T12:23:38.623Z,22.70
2018-02-18T12:26:12.626Z,30.65
2018-02-18T12:28:41.448Z,30.95
2018-02-18T12:31:10.900Z,33.03
2018-02-18T12:33:39.546Z,29.75
2018-02-18T12:36:07.823Z,24.60
2018-02-18T12:38:38.508Z,29.67
2018-02-18T12:43:53.344Z,28.38
2018-02-18T12:46:21.607Z,33.90
2018-02-18T12:48:54.445Z,23.83
2018-02-18T12:51:22.621Z,28.35
2018-02-18T12:53:51.093Z,24.85
2018-02-18T12:56:20.656Z,26.08
2018-02-18T12:58:48.828Z,24.23
2018-02-18T13:01:17.058Z,25.55
2018-02-18T13:03:45.988Z,29.65
2018-02-18T13:06:17.658Z,37.55
2018-02-18T13:08:45.905Z,31.60
2018-02-18T13:11:14.077Z,30.20
2018-02-18T13:13:42.238Z,27.67
2018-02-18T13:16:10.529Z,29.52
2018-02-18T13:18:38.992Z,30.90
2018-02-18T13:21:07.163Z,30.67
2018-02-18T13:23:36.104Z,30.88
2018-02-18T13:26:04.278Z,30.70
2018-02-18T13:28:32.442Z,29.55
2018-02-18T13:31:01.403Z,30.83
2018-02-18T13:33:29.758Z,28.12
2018-02-18T13:35:58.002Z,32.72
2018-02-18T13:38:26.159Z,32.45
2018-02-18T13:40:54.332Z,28.58
2018-02-18T13:43:23.366Z,31.08
2018-02-18T13:45:57.727Z,32.22
2018-02-18T13:48:30.630Z,32.50
2018-02-18T13:50:59.837Z,33.10
2018-02-18T13:53:28.041Z,27.83
2018-02-18T13:55:57.264Z,42.08
2018-02-18T13:58:25.453Z,27.67
2018-02-18T14:00:54.383Z,29.23
2018-02-18T14:03:22.554Z,32.85
2018-02-18T14:05:50.863Z,31.40
2018-02-18T14:08:19.034Z,32.92
2018-02-18T14:10:47.468Z,33.75
2018-02-18T14:13:15.655Z,34.97
2018-02-18T14:15:43.934Z,30.92
2018-02-18T14:18:12.107Z,29.27
2018-02-18T14:20:40.471Z,32.03
2018-02-18T14:25:50.087Z,32.85
2018-02-18T14:28:21.495Z,31.92
2018-02-18T14:30:49.646Z,34.50
2018-02-18T14:33:19.887Z,32.60
2018-02-18T14:36:00.719Z,35.20
2018-02-18T14:38:31.391Z,32.97
2018-02-18T14:41:13.528Z,36.22
2018-02-18T14:43:54.479Z,38.00
2018-02-18T14:46:37.740Z,40.12
2018-02-18T14:49:17.692Z,38.08
2018-02-18T14:51:58.759Z,33.38
2018-02-18T14:54:38.693Z,34.05
2018-02-18T14:57:18.724Z,40.95
2018-02-18T14:59:46.894Z,39.40
2018-02-18T15:02:15.473Z,33.67
2018-02-18T15:04:43.624Z,33.60
2018-02-18T15:07:11.956Z,28.90
2018-02-18T15:09:40.147Z,36.03
2018-02-18T15:12:08.362Z,32.20
2018-02-18T15:14:36.552Z,34.00
2018-02-18T15:17:08.097Z,32.75
2018-02-18T15:19:36.242Z,35.42
2018-02-18T15:22:07.311Z,34.67
2018-02-18T15:24:36.027Z,41.28
2018-02-18T15:27:05.291Z,30.83
2018-02-18T15:29:33.544Z,35.38
2018-02-18T15:32:01.705Z,38.38
2018-02-18T15:34:29.886Z,36.60
2018-02-18T15:36:58.202Z,29.90
2018-02-18T15:39:26.350Z,37.95
2018-02-18T15:41:55.281Z,29.20
2018-02-18T15:44:23.472Z,45.25
2018-02-18T15:47:00.426Z,26.30
2018-02-18T15:49:28.582Z,36.85
2018-02-18T15:51:56.742Z,35.22
2018-02-18T15:54:25.714Z,34.95
2018-02-18T15:56:58.114Z,32.20
2018-02-18T15:59:26.278Z,43.97
2018-02-18T16:01:54.515Z,35.03
2018-02-18T16:04:22.685Z,38.38
2018-02-18T16:06:59.102Z,37.13
2018-02-18T16:09:31.172Z,35.40
2018-02-18T16:11:59.346Z,42.42
2018-02-18T16:14:27.793Z,38.60
2018-02-18T16:16:57.357Z,38.38
2018-02-18T16:19:25.573Z,40.63
2018-02-18T16:21:55.285Z,40.05
2018-02-18T16:32:14.058Z,39.47
2018-02-18T16:34:42.295Z,36.75
2018-02-18T16:37:12.077Z,35.95
2018-02-18T16:39:40.249Z,42.22
2018-02-18T16:42:08.423Z,40.72
2018-02-18T16:44:36.622Z,38.00
2018-02-18T16:47:11.891Z,40.47
2018-02-18T16:49:46.676Z,45.40
2018-02-18T16:52:21.415Z,37.55
2018-02-18T16:54:52.878Z,46.37
2018-02-18T16:57:21.563Z,38.95
2018-02-18T16:59:52.266Z,45.53
2018-02-18T17:02:22.972Z,48.58
2018-02-18T17:04:51.872Z,38.55
2018-02-18T17:07:25.086Z,37.15
2018-02-18T17:09:54.090Z,29.05
2018-02-18T17:12:28.019Z,35.00
2018-02-18T17:14:57.145Z,34.65
2018-02-18T17:17:26.728Z,38.55
2018-02-18T17:19:54.900Z,36.78
2018-02-18T17:22:24.430Z,38.63
2018-02-18T17:24:53.525Z,35.72
2018-02-18T17:27:22.572Z,35.05
2018-02-18T17:29:50.789Z,39.97
2018-02-18T17:32:21.440Z,39.92
2018-02-18T17:34:49.660Z,34.78
2018-02-18T17:37:19.602Z,39.65
2018-02-18T17:39:47.938Z,38.75
2018-02-18T17:42:16.275Z,42.10
2018-02-18T17:44:44.510Z,37.53
2018-02-18T17:47:13.399Z,36.75
2018-02-18T17:49:41.577Z,43.72
2018-02-18T17:52:11.465Z,38.00
2018-02-18T17:54:39.633Z,32.60
2018-02-18T17:57:13.673Z,40.30
2018-02-18T17:59:42.239Z,36.25
2018-02-18T18:02:11.376Z,36.47
2018-02-18T18:04:39.665Z,42.97
2018-02-18T18:07:08.764Z,37.65
2018-02-18T18:09:37.231Z,54.65
2018-02-18T18:12:05.506Z,33.72
2018-02-18T18:14:34.766Z,39.17
2018-02-18T18:17:03.069Z,37.10
2018-02-18T18:19:32.011Z,36.83
2018-02-18T18:22:01.188Z,36.38
2018-02-18T18:24:29.350Z,39.50
2018-02-18T18:27:06.582Z,40.08
2018-02-18T18:29:35.543Z,37.45
2018-02-18T18:32:04.631Z,33.78
2018-02-18T18:34:32.854Z,32.40
2018-02-18T18:37:01.073Z,38.38
2018-02-18T18:39:29.231Z,41.47
2018-02-18T18:41:57.418Z,36.65
2018-02-18T18:44:25.578Z,38.30
2018-02-18T18:46:55.533Z,33.05
2018-02-18T18:49:24.468Z,33.40
2018-02-18T18:51:52.641Z,33.00
2018-02-18T18:54:23.951Z,41.22
2018-02-18T18:56:52.205Z,37.72
2018-02-18T18:59:20.369Z,36.15
2018-02-18T19:01:49.580Z,38.08
2018-02-18T19:04:18.251Z,39.42
2018-02-18T19:06:50.466Z,38.47
2018-02-18T19:09:19.025Z,36.78
2018-02-18T19:11:47.186Z,42.70
2018-02-18T19:14:15.412Z,43.90
2018-02-18T19:16:43.570Z,43.70
2018-02-18T19:19:12.630Z,47.92
2018-02-18T19:21:41.398Z,38.03
2018-02-18T19:24:10.438Z,40.95
2018-02-18T19:26:39.266Z,46.30
2018-02-18T19:29:08.293Z,44.83
2018-02-18T19:31:36.453Z,42.45
2018-02-18T19:34:05.412Z,42.25
2018-02-18T19:41:52.034Z,48.33
2018-02-18T19:44:21.963Z,48.90
2018-02-18T19:46:53.574Z,49.80
2018-02-18T19:49:21.734Z,40.33
2018-02-18T19:51:49.946Z,51.60
2018-02-18T19:54:18.106Z,46.33
2018-02-18T19:56:47.665Z,55.97
2018-02-18T19:59:15.834Z,51.15
2018-02-18T20:01:44.392Z,49.72
2018-02-18T20:04:12.563Z,49.20
2018-02-18T20:06:42.954Z,42.00
2018-02-18T20:09:11.129Z,39.58
2018-02-18T20:11:39.289Z,42.13
2018-02-18T20:14:08.506Z,46.05
2018-02-18T20:16:37.881Z,47.35
2018-02-18T20:19:06.154Z,44.78
2018-02-18T20:21:34.476Z,44.05
2018-02-18T20:24:02.665Z,43.53
2018-02-18T20:26:30.906Z,47.50
2018-02-18T20:28:59.068Z,46.08
2018-02-18T20:31:35.456Z,44.42
2018-02-18T20:34:03.615Z,41.72
2018-02-18T20:36:32.647Z,41.37
2018-02-18T20:39:00.822Z,45.72
2018-02-18T20:41:29.021Z,44.85
2018-02-18T20:43:57.195Z,43.92
2018-02-18T20:46:36.288Z,39.20
2018-02-18T20:49:11.664Z,49.78
2018-02-18T20:51:39.861Z,45.20
2018-02-18T20:54:08.420Z,44.63
2018-02-18T20:56:38.723Z,42.05
2018-02-18T20:59:06.883Z,46.15
2018-02-18T21:01:35.040Z,53.08
2018-02-18T21:04:04.802Z,44.53
2018-02-18T21:06:33.862Z,42.28
2018-02-18T21:09:02.026Z,48.72
2018-02-18T21:11:30.229Z,44.55
2018-02-18T21:13:58.486Z,39.45
2018-02-18T21:16:26.763Z,41.22
2018-02-18T21:18:55.291Z,47.13
2018-02-18T21:21:26.052Z,38.53
2018-02-18T21:24:06.351Z,36.25
2018-02-18T21:26:34.615Z,40.78
2018-02-18T21:29:06.919Z,35.30
2018-02-18T21:31:35.110Z,44.28
2018-02-18T21:34:03.850Z,36.15
2018-02-18T21:36:32.988Z,34.00
2018-02-18T21:39:01.219Z,40.55
2018-02-18T21:41:30.920Z,37.47
2018-02-18T21:44:00.388Z,42.88
2018-02-18T21:46:28.615Z,40.05
2018-02-18T21:48:56.779Z,36.08
2018-02-18T21:51:25.006Z,36.78
2018-02-18T21:53:53.186Z,36.63
2018-02-18T21:56:21.377Z,36.22
2018-02-18T21:58:50.337Z,37.13
2018-02-18T22:01:18.582Z,31.60
2018-02-18T22:03:47.526Z,40.35
2018-02-18T22:06:18.033Z,36.03
2018-02-18T22:08:46.513Z,34.92
2018-02-18T22:11:14.694Z,36.00
2018-02-18T22:13:47.068Z,32.65
2018-02-18T22:16:15.898Z,35.42
2018-02-18T22:18:44.465Z,29.20
2018-02-18T22:21:13.689Z,31.12
2018-02-18T22:23:41.867Z,33.40
2018-02-18T22:26:10.548Z,32.72
2018-02-18T22:28:38.792Z,31.83
2018-02-18T22:31:06.974Z,29.35
2018-02-18T22:33:35.147Z,31.20
2018-02-18T22:36:04.541Z,30.80
2018-02-18T22:38:32.738Z,29.10
2018-02-18T22:41:01.722Z,32.78
2018-02-18T22:43:30.970Z,31.83
2018-02-18T22:46:05.723Z,31.23
2018-02-18T22:48:33.891Z,32.28
2018-02-18T22:51:10.380Z,31.00
2018-02-18T22:53:39.389Z,28.00
2018-02-18T22:56:08.016Z,28.23
2018-02-18T22:58:36.218Z,26.23
2018-02-18T23:01:04.393Z,31.67
2018-02-18T23:03:32.678Z,29.77
2018-02-18T23:06:01.698Z,33.72
2018-02-18T23:08:29.853Z,30.25
2018-02-18T23:10:58.791Z,26.15
2018-02-18T23:13:28.542Z,31.85
2018-02-18T23:15:56.751Z,36.85
2018-02-18T23:18:24.931Z,32.45
2018-02-18T23:21:04.793Z,32.38
2018-02-18T23:23:33.861Z,29.37
2018-02-18T23:26:02.041Z,32.10
2018-02-18T23:28:30.218Z,28.92
2018-02-18T23:30:58.389Z,29.45
2018-02-18T23:33:26.547Z,28.45
2018-02-18T23:35:54.736Z,29.87
2018-02-18T23:38:22.928Z,28.02
2018-02-18T23:40:51.118Z,26.60
2018-02-18T23:43:19.278Z,31.10
2018-02-18T23:45:48.497Z,25.98
2018-02-18T23:48:16.663Z,25.17
2018-02-18T23:50:44.823Z,31.80
2018-02-18T23:53:13.760Z,28.73
2018-02-18T23:55:41.991Z,27.95
2018-02-18T23:58:10.153Z,23.33
